sensor_id;sensor_type;location;lat;lon;timestamp;pressure;altitude;pressure_sealevel;temperature;humidity
72308;BME280;60257;42.638;23.376;2022-09-30T00:01:45;94343.25;;;14.60;80.29
72308;BME280;60257;42.638;23.376;2022-09-30T00:04:16;94343.25;;;14.60;80.63
72308;BME280;60257;42.638;23.376;2022-09-30T00:06:42;94344.34;;;14.59;80.32
72308;BME280;60257;42.638;23.376;2022-09-30T00:09:09;94356.41;;;14.61;81.05
72308;BME280;60257;42.638;23.376;2022-09-30T00:11:37;94368.22;;;14.60;80.93
72308;BME280;60257;42.638;23.376;2022-09-30T00:14:05;94375.78;;;14.42;81.00
72308;BME280;60257;42.638;23.376;2022-09-30T00:16:34;94373.69;;;14.24;81.13
72308;BME280;60257;42.638;23.376;2022-09-30T00:19:00;94356.53;;;14.25;81.45
72308;BME280;60257;42.638;23.376;2022-09-30T00:21:28;94350.13;;;14.26;81.51
72308;BME280;60257;42.638;23.376;2022-09-30T00:23:54;94360.28;;;14.29;81.61
72308;BME280;60257;42.638;23.376;2022-09-30T00:26:21;94362.13;;;14.34;81.51
72308;BME280;60257;42.638;23.376;2022-09-30T00:28:52;94368.03;;;14.36;80.76
72308;BME280;60257;42.638;23.376;2022-09-30T00:31:19;94372.06;;;14.33;81.25
72308;BME280;60257;42.638;23.376;2022-09-30T00:33:45;94377.16;;;14.29;81.23
72308;BME280;60257;42.638;23.376;2022-09-30T00:36:43;94385.19;;;14.29;81.19
72308;BME280;60257;42.638;23.376;2022-09-30T00:39:24;94376.66;;;14.27;81.00
72308;BME280;60257;42.638;23.376;2022-09-30T00:41:56;94370.50;;;14.11;81.14
72308;BME280;60257;42.638;23.376;2022-09-30T00:49:54;94339.19;;;13.96;82.03
72308;BME280;60257;42.638;23.376;2022-09-30T00:52:22;94322.84;;;13.87;82.37
72308;BME280;60257;42.638;23.376;2022-09-30T00:54:48;94359.00;;;13.95;82.35
72308;BME280;60257;42.638;23.376;2022-09-30T00:57:16;94378.84;;;14.04;81.75
72308;BME280;60257;42.638;23.376;2022-09-30T00:59:45;94345.88;;;14.09;81.48
72308;BME280;60257;42.638;23.376;2022-09-30T01:02:12;94343.97;;;14.10;81.86
72308;BME280;60257;42.638;23.376;2022-09-30T01:04:40;94367.28;;;14.14;81.71
72308;BME280;60257;42.638;23.376;2022-09-30T01:07:07;94361.91;;;14.14;81.81
72308;BME280;60257;42.638;23.376;2022-09-30T01:09:35;94365.41;;;14.15;81.99
72308;BME280;60257;42.638;23.376;2022-09-30T01:12:11;94365.97;;;14.17;81.88
72308;BME280;60257;42.638;23.376;2022-09-30T01:14:39;94356.56;;;14.14;81.94
72308;BME280;60257;42.638;23.376;2022-09-30T01:34:37;94359.06;;;13.74;80.56
72308;BME280;60257;42.638;23.376;2022-09-30T01:37:24;94363.63;;;13.69;80.64
72308;BME280;60257;42.638;23.376;2022-09-30T01:45:12;94352.13;;;13.52;80.61
72308;BME280;60257;42.638;23.376;2022-09-30T01:47:56;94363.34;;;13.49;80.81
72308;BME280;60257;42.638;23.376;2022-09-30T01:50:31;94365.47;;;13.47;80.92
72308;BME280;60257;42.638;23.376;2022-09-30T01:53:34;94357.19;;;13.44;81.27
72308;BME280;60257;42.638;23.376;2022-09-30T01:59:06;94371.59;;;13.43;80.85
72308;BME280;60257;42.638;23.376;2022-09-30T02:01:58;94371.88;;;13.36;80.77
72308;BME280;60257;42.638;23.376;2022-09-30T02:04:41;94363.84;;;13.36;80.67
72308;BME280;60257;42.638;23.376;2022-09-30T02:07:24;94356.63;;;13.31;80.67
72308;BME280;60257;42.638;23.376;2022-09-30T02:09:57;94357.16;;;13.28;81.10
72308;BME280;60257;42.638;23.376;2022-09-30T02:12:26;94360.63;;;13.23;81.47
72308;BME280;60257;42.638;23.376;2022-09-30T02:15:08;94363.06;;;13.20;81.49
72308;BME280;60257;42.638;23.376;2022-09-30T02:17:44;94377.47;;;13.19;81.32
72308;BME280;60257;42.638;23.376;2022-09-30T02:20:16;94382.31;;;13.17;81.31
72308;BME280;60257;42.638;23.376;2022-09-30T02:22:59;94377.50;;;13.13;81.41
72308;BME280;60257;42.638;23.376;2022-09-30T02:25:29;94380.44;;;13.12;81.43
72308;BME280;60257;42.638;23.376;2022-09-30T02:28:02;94388.44;;;13.07;81.25
72308;BME280;60257;42.638;23.376;2022-09-30T02:30:35;94390.31;;;13.06;81.48
72308;BME280;60257;42.638;23.376;2022-09-30T02:33:04;94384.41;;;12.94;81.83
72308;BME280;60257;42.638;23.376;2022-09-30T02:35:42;94395.38;;;12.97;81.66
72308;BME280;60257;42.638;23.376;2022-09-30T02:38:17;94371.28;;;12.92;82.06
72308;BME280;60257;42.638;23.376;2022-09-30T02:40:49;94387.34;;;12.92;82.04
72308;BME280;60257;42.638;23.376;2022-09-30T02:43:17;94375.56;;;12.93;82.02
72308;BME280;60257;42.638;23.376;2022-09-30T02:49:05;94369.94;;;12.95;82.08
72308;BME280;60257;42.638;23.376;2022-09-30T02:54:18;94367.78;;;12.86;82.04
72308;BME280;60257;42.638;23.376;2022-09-30T02:56:56;94366.19;;;12.85;82.06
72308;BME280;60257;42.638;23.376;2022-09-30T02:59:25;94376.91;;;12.85;81.99
72308;BME280;60257;42.638;23.376;2022-09-30T03:01:51;94381.44;;;12.85;82.28
72308;BME280;60257;42.638;23.376;2022-09-30T03:04:29;94376.59;;;12.82;82.24
72308;BME280;60257;42.638;23.376;2022-09-30T03:06:57;94396.94;;;12.83;82.42
72308;BME280;60257;42.638;23.376;2022-09-30T03:09:26;94394.53;;;12.81;82.25
72308;BME280;60257;42.638;23.376;2022-09-30T03:14:45;94394.25;;;12.83;82.06
72308;BME280;60257;42.638;23.376;2022-09-30T03:17:38;94399.34;;;12.84;82.23
72308;BME280;60257;42.638;23.376;2022-09-30T03:20:26;94397.22;;;12.81;82.92
72308;BME280;60257;42.638;23.376;2022-09-30T03:31:29;94410.03;;;12.79;82.67
72308;BME280;60257;42.638;23.376;2022-09-30T03:37:03;94398.53;;;12.73;83.27
72308;BME280;60257;42.638;23.376;2022-09-30T03:42:23;94400.97;;;12.85;83.39
72308;BME280;60257;42.638;23.376;2022-09-30T03:47:41;94405.50;;;12.80;83.93
72308;BME280;60257;42.638;23.376;2022-09-30T03:50:11;94419.13;;;12.78;84.55
72308;BME280;60257;42.638;23.376;2022-09-30T03:52:39;94413.53;;;12.85;84.39
72308;BME280;60257;42.638;23.376;2022-09-30T03:55:05;94417.31;;;12.94;84.82
72308;BME280;60257;42.638;23.376;2022-09-30T03:57:32;94417.88;;;13.01;84.63
72308;BME280;60257;42.638;23.376;2022-09-30T03:59:58;94418.69;;;13.07;84.76
72308;BME280;60257;42.638;23.376;2022-09-30T04:02:25;94424.31;;;13.11;84.80
72308;BME280;60257;42.638;23.376;2022-09-30T04:04:51;94419.50;;;13.13;85.00
72308;BME280;60257;42.638;23.376;2022-09-30T04:07:17;94429.66;;;13.16;84.74
72308;BME280;60257;42.638;23.376;2022-09-30T04:09:42;94427.53;;;13.23;84.60
72308;BME280;60257;42.638;23.376;2022-09-30T04:12:08;94428.91;;;13.31;84.27
72308;BME280;60257;42.638;23.376;2022-09-30T04:14:33;94428.91;;;13.36;84.14
72308;BME280;60257;42.638;23.376;2022-09-30T04:17:00;94430.25;;;13.39;83.73
72308;BME280;60257;42.638;23.376;2022-09-30T04:19:25;94423.28;;;13.33;83.46
72308;BME280;60257;42.638;23.376;2022-09-30T04:21:52;94413.38;;;13.33;83.52
72308;BME280;60257;42.638;23.376;2022-09-30T04:24:19;94420.59;;;13.33;83.50
72308;BME280;60257;42.638;23.376;2022-09-30T04:26:45;94423.53;;;13.31;83.83
72308;BME280;60257;42.638;23.376;2022-09-30T04:29:10;94411.75;;;13.32;83.57
72308;BME280;60257;42.638;23.376;2022-09-30T04:31:36;94414.16;;;13.23;84.01
72308;BME280;60257;42.638;23.376;2022-09-30T04:34:01;94434.25;;;13.26;83.56
72308;BME280;60257;42.638;23.376;2022-09-30T04:36:27;94446.03;;;13.30;84.07
72308;BME280;60257;42.638;23.376;2022-09-30T04:38:52;94435.84;;;13.32;84.06
72308;BME280;60257;42.638;23.376;2022-09-30T04:41:19;94446.84;;;13.36;84.22
72308;BME280;60257;42.638;23.376;2022-09-30T04:43:46;94435.59;;;13.39;83.85
72308;BME280;60257;42.638;23.376;2022-09-30T04:46:17;94435.34;;;13.40;83.66
72308;BME280;60257;42.638;23.376;2022-09-30T04:48:44;94440.97;;;13.39;83.15
72308;BME280;60257;42.638;23.376;2022-09-30T04:51:20;94447.88;;;13.19;83.30
72308;BME280;60257;42.638;23.376;2022-09-30T04:53:47;94458.31;;;13.15;84.07
72308;BME280;60257;42.638;23.376;2022-09-30T04:56:13;94477.06;;;13.15;83.90
72308;BME280;60257;42.638;23.376;2022-09-30T04:58:41;94481.06;;;13.18;83.73
72308;BME280;60257;42.638;23.376;2022-09-30T05:01:15;94482.69;;;13.30;83.90
72308;BME280;60257;42.638;23.376;2022-09-30T05:03:41;94480.81;;;13.35;83.46
72308;BME280;60257;42.638;23.376;2022-09-30T05:06:07;94478.41;;;13.28;83.64
72308;BME280;60257;42.638;23.376;2022-09-30T05:08:33;94476.25;;;13.31;83.76
72308;BME280;60257;42.638;23.376;2022-09-30T05:11:05;94461.00;;;13.31;83.54
72308;BME280;60257;42.638;23.376;2022-09-30T05:13:34;94466.41;;;13.36;83.31
72308;BME280;60257;42.638;23.376;2022-09-30T05:16:01;94457.03;;;13.39;83.26
72308;BME280;60257;42.638;23.376;2022-09-30T05:18:27;94466.69;;;13.45;83.04
72308;BME280;60257;42.638;23.376;2022-09-30T05:20:54;94471.47;;;13.43;82.91
72308;BME280;60257;42.638;23.376;2022-09-30T05:23:22;94481.91;;;13.39;83.36
72308;BME280;60257;42.638;23.376;2022-09-30T05:25:48;94490.22;;;13.43;83.35
72308;BME280;60257;42.638;23.376;2022-09-30T05:28:14;94500.69;;;13.50;82.50
72308;BME280;60257;42.638;23.376;2022-09-30T05:30:40;94490.78;;;13.50;82.78
72308;BME280;60257;42.638;23.376;2022-09-30T05:33:10;94491.38;;;13.63;83.35
72308;BME280;60257;42.638;23.376;2022-09-30T05:35:36;94488.97;;;13.72;82.09
72308;BME280;60257;42.638;23.376;2022-09-30T05:38:01;94496.22;;;13.76;82.05
72308;BME280;60257;42.638;23.376;2022-09-30T05:40:29;94506.13;;;13.86;82.26
72308;BME280;60257;42.638;23.376;2022-09-30T05:42:56;94514.41;;;13.85;81.46
72308;BME280;60257;42.638;23.376;2022-09-30T05:45:22;94514.19;;;13.91;81.83
72308;BME280;60257;42.638;23.376;2022-09-30T05:47:54;94508.00;;;14.01;81.71
72308;BME280;60257;42.638;23.376;2022-09-30T05:50:20;94519.81;;;14.11;81.76
72308;BME280;60257;42.638;23.376;2022-09-30T05:52:46;94515.25;;;14.16;81.37
72308;BME280;60257;42.638;23.376;2022-09-30T05:55:11;94517.38;;;14.20;81.49
72308;BME280;60257;42.638;23.376;2022-09-30T05:57:37;94530.25;;;14.18;81.03
72308;BME280;60257;42.638;23.376;2022-09-30T06:00:04;94526.22;;;13.99;81.41
72308;BME280;60257;42.638;23.376;2022-09-30T06:02:30;94532.66;;;13.93;81.87
72308;BME280;60257;42.638;23.376;2022-09-30T06:04:55;94540.97;;;13.97;81.82
72308;BME280;60257;42.638;23.376;2022-09-30T06:07:21;94541.75;;;14.02;82.02
72308;BME280;60257;42.638;23.376;2022-09-30T06:09:46;94545.50;;;14.07;82.01
72308;BME280;60257;42.638;23.376;2022-09-30T06:12:12;94531.06;;;13.97;81.75
72308;BME280;60257;42.638;23.376;2022-09-30T06:14:38;94532.09;;;14.07;81.69
72308;BME280;60257;42.638;23.376;2022-09-30T06:17:03;94533.47;;;14.30;81.23
72308;BME280;60257;42.638;23.376;2022-09-30T06:19:29;94532.63;;;14.50;81.16
72308;BME280;60257;42.638;23.376;2022-09-30T06:21:56;94541.19;;;14.58;80.46
72308;BME280;60257;42.638;23.376;2022-09-30T06:24:22;94554.84;;;14.77;79.66
72308;BME280;60257;42.638;23.376;2022-09-30T06:26:47;94540.34;;;14.94;79.97
72308;BME280;60257;42.638;23.376;2022-09-30T06:29:13;94536.34;;;14.96;78.93
72308;BME280;60257;42.638;23.376;2022-09-30T06:31:39;94544.09;;;14.98;78.23
72308;BME280;60257;42.638;23.376;2022-09-30T06:34:04;94555.91;;;14.97;78.28
72308;BME280;60257;42.638;23.376;2022-09-30T06:36:31;94545.22;;;14.91;78.10
72308;BME280;60257;42.638;23.376;2022-09-30T06:38:59;94539.59;;;14.83;77.91
72308;BME280;60257;42.638;23.376;2022-09-30T06:41:25;94533.94;;;14.69;78.17
72308;BME280;60257;42.638;23.376;2022-09-30T06:43:53;94552.19;;;14.66;78.40
72308;BME280;60257;42.638;23.376;2022-09-30T06:46:19;94553.00;;;14.67;78.83
72308;BME280;60257;42.638;23.376;2022-09-30T06:48:49;94556.75;;;14.71;78.98
72308;BME280;60257;42.638;23.376;2022-09-30T06:51:17;94566.69;;;14.71;79.15
72308;BME280;60257;42.638;23.376;2022-09-30T06:53:44;94577.16;;;14.72;78.99
72308;BME280;60257;42.638;23.376;2022-09-30T06:56:10;94572.03;;;14.76;79.13
72308;BME280;60257;42.638;23.376;2022-09-30T06:58:35;94576.63;;;14.86;78.81
72308;BME280;60257;42.638;23.376;2022-09-30T07:01:04;94586.28;;;14.87;78.31
72308;BME280;60257;42.638;23.376;2022-09-30T07:03:32;94579.00;;;14.87;78.40
72308;BME280;60257;42.638;23.376;2022-09-30T07:06:02;94585.47;;;14.91;78.29
72308;BME280;60257;42.638;23.376;2022-09-30T07:08:29;94577.66;;;14.95;78.30
72308;BME280;60257;42.638;23.376;2022-09-30T07:10:59;94584.91;;;15.05;78.70
72308;BME280;60257;42.638;23.376;2022-09-30T07:13:25;94596.94;;;15.18;78.13
72308;BME280;60257;42.638;23.376;2022-09-30T07:15:51;94597.47;;;15.15;78.81
72308;BME280;60257;42.638;23.376;2022-09-30T07:18:20;94601.22;;;15.19;79.26
72308;BME280;60257;42.638;23.376;2022-09-30T07:20:50;94610.84;;;15.36;78.73
72308;BME280;60257;42.638;23.376;2022-09-30T07:23:16;94606.59;;;15.19;78.92
72308;BME280;60257;42.638;23.376;2022-09-30T07:25:56;94606.84;;;15.17;78.64
72308;BME280;60257;42.638;23.376;2022-09-30T07:28:28;94614.88;;;15.28;78.11
72308;BME280;60257;42.638;23.376;2022-09-30T07:30:59;94619.44;;;15.38;78.01
72308;BME280;60257;42.638;23.376;2022-09-30T07:33:26;94618.34;;;15.39;77.29
72308;BME280;60257;42.638;23.376;2022-09-30T07:35:57;94631.78;;;15.34;77.57
72308;BME280;60257;42.638;23.376;2022-09-30T07:38:25;94630.19;;;15.33;77.36
72308;BME280;60257;42.638;23.376;2022-09-30T07:40:59;94622.09;;;15.43;77.44
72308;BME280;60257;42.638;23.376;2022-09-30T07:43:27;94623.16;;;15.52;77.20
72308;BME280;60257;42.638;23.376;2022-09-30T07:48:28;94620.66;;;15.66;76.82
72308;BME280;60257;42.638;23.376;2022-09-30T07:51:17;94623.59;;;15.75;75.83
72308;BME280;60257;42.638;23.376;2022-09-30T07:53:45;94610.94;;;15.81;75.25
72308;BME280;60257;42.638;23.376;2022-09-30T07:56:12;94620.56;;;15.87;75.26
72308;BME280;60257;42.638;23.376;2022-09-30T07:58:39;94620.81;;;15.91;75.09
72308;BME280;60257;42.638;23.376;2022-09-30T08:01:05;94618.94;;;15.97;74.70
72308;BME280;60257;42.638;23.376;2022-09-30T08:03:32;94619.16;;;16.05;74.85
72308;BME280;60257;42.638;23.376;2022-09-30T08:06:06;94632.81;;;16.14;74.91
72308;BME280;60257;42.638;23.376;2022-09-30T08:08:32;94637.88;;;16.21;74.69
72308;BME280;60257;42.638;23.376;2022-09-30T08:10:59;94630.31;;;16.23;73.52
72308;BME280;60257;42.638;23.376;2022-09-30T08:13:24;94640.25;;;16.28;73.67
72308;BME280;60257;42.638;23.376;2022-09-30T08:15:50;94644.50;;;16.39;73.57
72308;BME280;60257;42.638;23.376;2022-09-30T08:18:15;94639.13;;;16.39;71.83
72308;BME280;60257;42.638;23.376;2022-09-30T08:20:41;94632.38;;;16.42;71.55
72308;BME280;60257;42.638;23.376;2022-09-30T08:23:06;94636.63;;;16.48;71.79
72308;BME280;60257;42.638;23.376;2022-09-30T08:25:32;94644.09;;;16.56;72.05
72308;BME280;60257;42.638;23.376;2022-09-30T08:27:57;94649.16;;;16.63;71.40
72308;BME280;60257;42.638;23.376;2022-09-30T08:30:23;94652.34;;;16.71;70.82
72308;BME280;60257;42.638;23.376;2022-09-30T08:32:48;94655.25;;;16.74;70.81
72308;BME280;60257;42.638;23.376;2022-09-30T08:35:17;94658.19;;;16.78;70.54
72308;BME280;60257;42.638;23.376;2022-09-30T08:37:42;94653.56;;;16.84;69.73
72308;BME280;60257;42.638;23.376;2022-09-30T08:40:28;94653.22;;;16.90;69.84
72308;BME280;60257;42.638;23.376;2022-09-30T08:46:06;94662.56;;;17.03;69.49
72308;BME280;60257;42.638;23.376;2022-09-30T08:49:23;94661.19;;;17.11;69.76
72308;BME280;60257;42.638;23.376;2022-09-30T08:51:45;94655.97;;;17.20;70.15
72308;BME280;60257;42.638;23.376;2022-09-30T08:54:24;94665.56;;;17.31;69.49
72308;BME280;60257;42.638;23.376;2022-09-30T08:56:51;94668.13;;;17.42;68.43
72308;BME280;60257;42.638;23.376;2022-09-30T08:59:36;94659.78;;;17.43;68.18
72308;BME280;60257;42.638;23.376;2022-09-30T09:02:22;94661.81;;;17.52;67.80
72308;BME280;60257;42.638;23.376;2022-09-30T09:04:50;94673.06;;;17.59;68.10
72308;BME280;60257;42.638;23.376;2022-09-30T09:10:25;94673.19;;;17.73;67.81
72308;BME280;60257;42.638;23.376;2022-09-30T09:18:43;94679.44;;;17.93;65.81
72308;BME280;60257;42.638;23.376;2022-09-30T09:23:52;94679.16;;;17.94;64.48
72308;BME280;60257;42.638;23.376;2022-09-30T09:26:22;94686.00;;;18.06;64.20
72308;BME280;60257;42.638;23.376;2022-09-30T09:31:28;94683.44;;;18.20;64.79
72308;BME280;60257;42.638;23.376;2022-09-30T09:33:59;94670.09;;;18.29;65.00
72308;BME280;60257;42.638;23.376;2022-09-30T09:36:42;94671.63;;;18.35;64.73
72308;BME280;60257;42.638;23.376;2022-09-30T09:39:59;94681.53;;;18.40;65.01
72308;BME280;60257;42.638;23.376;2022-09-30T09:42:58;94674.41;;;18.49;64.53
72308;BME280;60257;42.638;23.376;2022-09-30T09:45:46;94678.63;;;18.55;63.61
72308;BME280;60257;42.638;23.376;2022-09-30T09:48:14;94666.78;;;18.70;61.32
72308;BME280;60257;42.638;23.376;2022-09-30T09:55:54;94660.78;;;18.93;61.13
72308;BME280;60257;42.638;23.376;2022-09-30T09:58:23;94662.28;;;18.99;60.29
72308;BME280;60257;42.638;23.376;2022-09-30T10:00:50;94661.13;;;19.05;60.36
72308;BME280;60257;42.638;23.376;2022-09-30T10:03:19;94673.44;;;19.12;60.96
72308;BME280;60257;42.638;23.376;2022-09-30T10:08:33;94668.72;;;19.37;58.50
72308;BME280;60257;42.638;23.376;2022-09-30T10:11:02;94670.31;;;19.52;56.77
72308;BME280;60257;42.638;23.376;2022-09-30T10:13:40;94656.00;;;19.65;57.08
72308;BME280;60257;42.638;23.376;2022-09-30T10:16:24;94654.78;;;19.71;54.93
72308;BME280;60257;42.638;23.376;2022-09-30T10:18:50;94656.91;;;19.75;56.03
72308;BME280;60257;42.638;23.376;2022-09-30T10:21:21;94656.41;;;20.01;54.72
72308;BME280;60257;42.638;23.376;2022-09-30T10:23:47;94653.38;;;20.16;52.93
72308;BME280;60257;42.638;23.376;2022-09-30T10:28:48;94640.28;;;20.32;53.13
72308;BME280;60257;42.638;23.376;2022-09-30T10:34:02;94642.78;;;20.43;51.55
72308;BME280;60257;42.638;23.376;2022-09-30T10:36:35;94637.56;;;20.46;49.46
72308;BME280;60257;42.638;23.376;2022-09-30T10:41:35;94635.97;;;20.68;49.79
72308;BME280;60257;42.638;23.376;2022-09-30T10:44:04;94643.16;;;20.73;50.07
72308;BME280;60257;42.638;23.376;2022-09-30T10:46:33;94647.19;;;20.76;50.84
72308;BME280;60257;42.638;23.376;2022-09-30T10:49:10;94652.28;;;20.77;51.81
72308;BME280;60257;42.638;23.376;2022-09-30T10:51:36;94651.03;;;20.83;52.19
72308;BME280;60257;42.638;23.376;2022-09-30T10:54:04;94645.75;;;21.01;50.58
72308;BME280;60257;42.638;23.376;2022-09-30T10:56:43;94649.16;;;21.07;49.67
72308;BME280;60257;42.638;23.376;2022-09-30T10:59:41;94645.66;;;21.06;48.84
72308;BME280;60257;42.638;23.376;2022-09-30T11:02:21;94647.28;;;21.16;48.41
72308;BME280;60257;42.638;23.376;2022-09-30T11:04:58;94644.78;;;21.20;48.34
72308;BME280;60257;42.638;23.376;2022-09-30T11:07:26;94646.66;;;21.19;48.38
72308;BME280;60257;42.638;23.376;2022-09-30T11:15:28;94638.97;;;21.44;48.42
72308;BME280;60257;42.638;23.376;2022-09-30T11:18:06;94629.50;;;21.65;46.19
72308;BME280;60257;42.638;23.376;2022-09-30T11:20:41;94641.44;;;21.55;47.84
72308;BME280;60257;42.638;23.376;2022-09-30T11:26:49;94643.22;;;21.68;44.52
72308;BME280;60257;42.638;23.376;2022-09-30T11:29:12;94637.38;;;21.75;46.16
72308;BME280;60257;42.638;23.376;2022-09-30T11:45:18;94651.91;;;21.88;45.07
72308;BME280;60257;42.638;23.376;2022-09-30T11:48:19;94650.03;;;21.89;45.00
72308;BME280;60257;42.638;23.376;2022-09-30T11:51:06;94647.78;;;21.91;44.92
72308;BME280;60257;42.638;23.376;2022-09-30T11:53:48;94650.47;;;21.91;44.01
72308;BME280;60257;42.638;23.376;2022-09-30T11:56:41;94643.34;;;21.95;43.93
72308;BME280;60257;42.638;23.376;2022-09-30T11:59:18;94647.47;;;22.01;43.31
72308;BME280;60257;42.638;23.376;2022-09-30T12:01:49;94642.72;;;21.98;42.56
72308;BME280;60257;42.638;23.376;2022-09-30T12:04:22;94647.81;;;22.00;42.07
72308;BME280;60257;42.638;23.376;2022-09-30T12:07:10;94648.16;;;22.07;42.25
72308;BME280;60257;42.638;23.376;2022-09-30T12:09:46;94649.44;;;22.18;42.53
72308;BME280;60257;42.638;23.376;2022-09-30T12:12:14;94655.38;;;22.29;42.55
72308;BME280;60257;42.638;23.376;2022-09-30T12:15:03;94655.53;;;22.42;41.88
72308;BME280;60257;42.638;23.376;2022-09-30T12:17:39;94651.25;;;22.58;40.46
72308;BME280;60257;42.638;23.376;2022-09-30T12:20:25;94648.19;;;22.86;40.46
72308;BME280;60257;42.638;23.376;2022-09-30T12:22:58;94651.50;;;23.19;39.81
72308;BME280;60257;42.638;23.376;2022-09-30T12:25:30;94653.53;;;23.48;38.56
72308;BME280;60257;42.638;23.376;2022-09-30T12:28:47;94649.78;;;23.62;38.24
72308;BME280;60257;42.638;23.376;2022-09-30T12:40:07;94652.97;;;23.64;36.93
72308;BME280;60257;42.638;23.376;2022-09-30T12:48:21;94646.50;;;23.47;36.64
72308;BME280;60257;42.638;23.376;2022-09-30T12:50:51;94657.69;;;23.46;37.02
72308;BME280;60257;42.638;23.376;2022-09-30T12:53:26;94653.03;;;23.46;36.89
72308;BME280;60257;42.638;23.376;2022-09-30T12:56:01;94650.19;;;23.43;36.39
72308;BME280;60257;42.638;23.376;2022-09-30T12:58:32;94652.25;;;23.37;36.86
72308;BME280;60257;42.638;23.376;2022-09-30T13:01:04;94656.28;;;23.40;37.10
72308;BME280;60257;42.638;23.376;2022-09-30T13:11:42;94652.75;;;23.30;37.03
72308;BME280;60257;42.638;23.376;2022-09-30T13:14:16;94647.00;;;23.23;37.80
72308;BME280;60257;42.638;23.376;2022-09-30T13:19:37;94654.56;;;23.17;38.27
72308;BME280;60257;42.638;23.376;2022-09-30T13:27:40;94657.72;;;23.19;37.01
72308;BME280;60257;42.638;23.376;2022-09-30T13:32:38;94649.41;;;23.24;37.35
72308;BME280;60257;42.638;23.376;2022-09-30T13:40:38;94663.47;;;23.27;35.69
72308;BME280;60257;42.638;23.376;2022-09-30T13:43:11;94660.44;;;23.19;36.40
72308;BME280;60257;42.638;23.376;2022-09-30T13:45:40;94661.25;;;23.20;36.04
72308;BME280;60257;42.638;23.376;2022-09-30T13:48:17;94663.97;;;23.20;35.77
72308;BME280;60257;42.638;23.376;2022-09-30T13:50:53;94675.97;;;23.19;36.26
72308;BME280;60257;42.638;23.376;2022-09-30T13:53:45;94669.41;;;23.20;36.48
72308;BME280;60257;42.638;23.376;2022-09-30T13:56:32;94671.63;;;23.27;35.28
72308;BME280;60257;42.638;23.376;2022-09-30T14:07:23;94665.47;;;22.99;36.51
72308;BME280;60257;42.638;23.376;2022-09-30T14:24:03;94687.50;;;22.80;36.49
72308;BME280;60257;42.638;23.376;2022-09-30T14:26:43;94697.59;;;22.80;37.65
72308;BME280;60257;42.638;23.376;2022-09-30T14:32:52;94695.19;;;22.87;36.95
72308;BME280;60257;42.638;23.376;2022-09-30T14:35:25;94697.28;;;22.81;37.05
72308;BME280;60257;42.638;23.376;2022-09-30T14:38:02;94700.00;;;22.72;37.55
72308;BME280;60257;42.638;23.376;2022-09-30T14:40:30;94699.69;;;22.65;37.68
72308;BME280;60257;42.638;23.376;2022-09-30T14:43:02;94702.53;;;22.60;37.54
72308;BME280;60257;42.638;23.376;2022-09-30T14:45:37;94709.09;;;22.59;37.62
72308;BME280;60257;42.638;23.376;2022-09-30T14:48:17;94717.03;;;22.55;37.66
72308;BME280;60257;42.638;23.376;2022-09-30T14:51:08;94704.72;;;22.49;37.71
72308;BME280;60257;42.638;23.376;2022-09-30T14:53:38;94705.84;;;22.48;37.74
72308;BME280;60257;42.638;23.376;2022-09-30T14:56:18;94713.03;;;22.44;38.00
72308;BME280;60257;42.638;23.376;2022-09-30T14:58:47;94720.72;;;22.51;37.56
72308;BME280;60257;42.638;23.376;2022-09-30T15:01:17;94719.63;;;22.52;38.09
72308;BME280;60257;42.638;23.376;2022-09-30T15:03:51;94718.47;;;22.53;38.25
72308;BME280;60257;42.638;23.376;2022-09-30T15:06:23;94716.56;;;22.53;37.90
72308;BME280;60257;42.638;23.376;2022-09-30T15:08:59;94715.13;;;22.56;36.80
72308;BME280;60257;42.638;23.376;2022-09-30T15:11:26;94719.75;;;22.55;36.67
72308;BME280;60257;42.638;23.376;2022-09-30T15:14:06;94717.56;;;22.57;37.17
72308;BME280;60257;42.638;23.376;2022-09-30T15:16:43;94717.53;;;22.48;37.74
72308;BME280;60257;42.638;23.376;2022-09-30T15:19:47;94723.72;;;22.31;38.48
72308;BME280;60257;42.638;23.376;2022-09-30T15:22:15;94716.19;;;22.19;38.92
72308;BME280;60257;42.638;23.376;2022-09-30T15:24:42;94714.88;;;22.08;39.15
72308;BME280;60257;42.638;23.376;2022-09-30T15:27:36;94733.84;;;21.99;39.74
72308;BME280;60257;42.638;23.376;2022-09-30T15:30:02;94730.59;;;21.88;41.49
72308;BME280;60257;42.638;23.376;2022-09-30T15:32:32;94737.13;;;21.78;41.14
72308;BME280;60257;42.638;23.376;2022-09-30T15:35:06;94737.75;;;21.75;41.20
72308;BME280;60257;42.638;23.376;2022-09-30T15:37:32;94735.59;;;21.63;41.42
72308;BME280;60257;42.638;23.376;2022-09-30T15:39:59;94746.06;;;21.56;41.91
72308;BME280;60257;42.638;23.376;2022-09-30T15:42:57;94749.66;;;21.42;42.61
72308;BME280;60257;42.638;23.376;2022-09-30T15:45:29;94762.28;;;21.24;44.05
72308;BME280;60257;42.638;23.376;2022-09-30T15:48:45;94755.03;;;21.10;44.05
72308;BME280;60257;42.638;23.376;2022-09-30T15:50:58;94772.13;;;20.97;44.11
72308;BME280;60257;42.638;23.376;2022-09-30T15:53:29;94771.84;;;20.84;44.53
72308;BME280;60257;42.638;23.376;2022-09-30T15:55:57;94776.31;;;20.66;45.15
72308;BME280;60257;42.638;23.376;2022-09-30T15:58:37;94766.59;;;20.51;45.27
72308;BME280;60257;42.638;23.376;2022-09-30T16:01:49;94771.41;;;20.40;45.78
72308;BME280;60257;42.638;23.376;2022-09-30T16:04:22;94775.16;;;20.30;45.54
72308;BME280;60257;42.638;23.376;2022-09-30T16:06:56;94786.38;;;20.24;45.25
72308;BME280;60257;42.638;23.376;2022-09-30T16:09:29;94790.31;;;20.17;46.05
72308;BME280;60257;42.638;23.376;2022-09-30T16:12:06;94797.69;;;20.12;46.09
72308;BME280;60257;42.638;23.376;2022-09-30T16:14:49;94798.97;;;20.00;46.33
72308;BME280;60257;42.638;23.376;2022-09-30T16:17:36;94803.25;;;19.87;46.44